Weather at Don Mueang International Airport

Public forecast

Using degrees Celsius for public forecast. Weather courtesy of forecast.io.

Current aviation weather report (METAR) for Don Mueang International Airport

Retrieved 2020/12/04 03:30 UTC (15 minutes ago):

VTBD 040330Z 05007KT 350V100 CAVOK 27/16 Q1015 NOSIG

Aviation forecast (TAF) for Don Mueang International Airport

Retrieved 2020-12-04 00:36 UTC (3 hours ago):

TAF VTBD 032300Z 0400/0506 06008KT 9999 FEW030